createdAt,value
2017-07-21T00:00:33.194Z,0
2017-07-21T00:01:43.469Z,0
2017-07-21T00:02:53.744Z,0
2017-07-21T00:04:03.708Z,0
2017-07-21T00:05:13.982Z,0
2017-07-21T00:06:24.257Z,0
2017-07-21T00:07:34.529Z,0
2017-07-21T00:08:44.799Z,0
2017-07-21T00:09:55.073Z,0
2017-07-21T00:11:05.347Z,0
2017-07-21T00:12:15.622Z,0
2017-07-21T00:13:25.924Z,0
2017-07-21T00:14:35.879Z,0
2017-07-21T00:15:45.838Z,0
2017-07-21T00:16:55.794Z,0
2017-07-21T00:18:06.058Z,0
2017-07-21T00:19:16.339Z,0
2017-07-21T00:20:26.613Z,0
2017-07-21T00:21:36.886Z,0
2017-07-21T00:22:47.152Z,0
2017-07-21T00:23:57.426Z,0
2017-07-21T00:25:07.073Z,0
2017-07-21T00:26:17.356Z,0
2017-07-21T00:27:27.309Z,0
2017-07-21T00:28:37.578Z,0
2017-07-21T00:29:47.850Z,0
2017-07-21T00:30:58.123Z,0
2017-07-21T00:32:08.080Z,0
2017-07-21T00:33:18.353Z,0
2017-07-21T00:34:28.635Z,0
2017-07-21T00:35:38.279Z,0
2017-07-21T00:36:48.557Z,0
2017-07-21T00:37:58.851Z,0
2017-07-21T00:39:09.126Z,0
2017-07-21T00:40:19.084Z,0
2017-07-21T00:41:28.726Z,0
2017-07-21T00:42:38.997Z,0
2017-07-21T00:43:49.285Z,0
2017-07-21T00:44:59.236Z,0
2017-07-21T00:46:09.509Z,0
2017-07-21T00:47:19.464Z,0
2017-07-21T00:48:29.732Z,0
2017-07-21T00:49:40.000Z,0
2017-07-21T00:50:50.269Z,0
2017-07-21T00:52:00.223Z,0
2017-07-21T00:53:10.489Z,0
2017-07-21T00:54:20.758Z,0
2017-07-21T00:55:31.030Z,0
2017-07-21T00:56:41.306Z,0
2017-07-21T00:57:50.948Z,0
2017-07-21T00:59:00.899Z,0
2017-07-21T01:00:11.169Z,0
2017-07-21T01:01:21.443Z,0
2017-07-21T01:02:31.400Z,0
2017-07-21T01:03:41.360Z,0
2017-07-21T01:04:51.639Z,0
2017-07-21T01:06:01.909Z,0
2017-07-21T01:07:12.178Z,0
2017-07-21T01:08:22.459Z,0
2017-07-21T01:09:32.415Z,0
2017-07-21T01:10:42.372Z,0
2017-07-21T01:11:52.643Z,0
2017-07-21T01:13:02.919Z,4
2017-07-21T01:14:13.191Z,4
2017-07-21T01:15:23.150Z,4
2017-07-21T01:16:33.426Z,4
2017-07-21T01:17:43.696Z,0
2017-07-21T01:18:53.973Z,0
2017-07-21T01:20:04.250Z,0
2017-07-21T01:21:14.524Z,0
2017-07-21T01:22:24.800Z,4
2017-07-21T01:23:34.758Z,4
2017-07-21T01:24:45.036Z,4
2017-07-21T01:25:54.993Z,4
2017-07-21T01:27:05.272Z,0
2017-07-21T01:28:15.228Z,4
2017-07-21T01:29:25.187Z,4
2017-07-21T01:30:35.457Z,4
2017-07-21T01:31:45.740Z,4
2017-07-21T01:32:56.011Z,4
2017-07-21T01:34:06.288Z,4
2017-07-21T01:35:16.559Z,4
2017-07-21T01:36:26.829Z,8
2017-07-21T01:37:37.100Z,8
2017-07-21T01:38:47.374Z,8
2017-07-21T01:39:57.646Z,8
2017-07-21T01:41:07.920Z,8
2017-07-21T01:42:18.190Z,8
2017-07-21T01:43:28.148Z,12
2017-07-21T01:44:38.106Z,12
2017-07-21T01:45:48.374Z,12
2017-07-21T01:46:58.642Z,16
2017-07-21T01:48:08.915Z,16
2017-07-21T01:49:19.189Z,16
2017-07-21T01:50:29.149Z,20
2017-07-21T01:51:39.451Z,20
2017-07-21T01:52:49.726Z,24
2017-07-21T01:53:59.690Z,24
2017-07-21T01:55:09.649Z,24
2017-07-21T01:56:19.925Z,28
2017-07-21T01:57:29.882Z,32
2017-07-21T01:58:39.537Z,32
2017-07-21T01:59:49.497Z,36
2017-07-21T02:00:59.451Z,40
2017-07-21T02:02:09.716Z,44
2017-07-21T02:03:19.988Z,44
2017-07-21T02:04:30.256Z,48
2017-07-21T02:05:39.898Z,52
2017-07-21T02:06:49.854Z,60
2017-07-21T02:07:59.810Z,64
2017-07-21T02:09:10.079Z,68
2017-07-21T02:10:20.347Z,76
2017-07-21T02:11:30.616Z,80
2017-07-21T02:12:40.257Z,88
2017-07-21T02:13:50.525Z,96
2017-07-21T02:15:00.475Z,100
2017-07-21T02:16:10.429Z,108
2017-07-21T02:17:20.383Z,116
2017-07-21T02:18:30.658Z,124
2017-07-21T02:19:40.926Z,132
2017-07-21T02:20:51.192Z,144
2017-07-21T02:22:01.468Z,156
2017-07-21T02:23:11.119Z,164
2017-07-21T02:24:20.771Z,176
2017-07-21T02:25:31.041Z,188
2017-07-21T02:26:40.997Z,196
2017-07-21T02:27:51.265Z,208
2017-07-21T02:29:01.536Z,224
2017-07-21T02:30:11.807Z,236
2017-07-21T02:31:22.086Z,252
2017-07-21T02:32:32.354Z,264
2017-07-21T02:33:42.627Z,280
2017-07-21T02:34:52.906Z,292
2017-07-21T02:36:02.548Z,312
2017-07-21T02:37:12.820Z,328
2017-07-21T02:38:22.777Z,348
2017-07-21T02:39:33.073Z,360
2017-07-21T02:40:43.367Z,384
2017-07-21T02:41:53.638Z,400
2017-07-21T02:43:03.909Z,416
2017-07-21T02:44:13.869Z,436
2017-07-21T02:45:24.146Z,460
2017-07-21T02:46:34.422Z,476
2017-07-21T02:47:44.699Z,496
2017-07-21T02:48:54.342Z,516
2017-07-21T02:50:04.616Z,540
2017-07-21T02:51:14.890Z,560
2017-07-21T02:52:25.166Z,580
2017-07-21T02:53:35.125Z,604
2017-07-21T02:54:45.400Z,628
2017-07-21T02:55:55.685Z,648
2017-07-21T02:57:05.329Z,668
2017-07-21T02:58:15.606Z,692
2017-07-21T02:59:25.283Z,716
2017-07-21T03:00:35.553Z,736
2017-07-21T03:01:45.516Z,764
2017-07-21T03:02:55.790Z,788
2017-07-21T03:04:06.060Z,808
2017-07-21T03:05:16.328Z,836
2017-07-21T03:06:26.610Z,860
2017-07-21T03:07:36.567Z,884
2017-07-21T03:08:46.840Z,908
2017-07-21T03:09:57.111Z,932
2017-07-21T03:11:07.391Z,960
2017-07-21T03:12:17.668Z,980
2017-07-21T03:13:27.939Z,1004
2017-07-21T03:14:38.210Z,1032
2017-07-21T03:15:48.475Z,1056
2017-07-21T03:16:58.425Z,1076
2017-07-21T03:18:08.710Z,1100
2017-07-21T03:19:18.982Z,1128
2017-07-21T03:20:29.255Z,1152
2017-07-21T03:21:39.211Z,1176
2017-07-21T03:22:49.169Z,1196
2017-07-21T03:23:59.448Z,1224
2017-07-21T03:25:09.724Z,1244
2017-07-21T03:26:20.001Z,1268
2017-07-21T03:27:29.647Z,1288
2017-07-21T03:28:39.926Z,1312
2017-07-21T03:29:50.197Z,1332
2017-07-21T03:31:00.492Z,1356
2017-07-21T03:32:10.769Z,1380
2017-07-21T03:33:21.046Z,1400
2017-07-21T03:34:31.316Z,1424
2017-07-21T03:35:41.584Z,1452
2017-07-21T03:36:51.856Z,1472
2017-07-21T03:38:02.132Z,1492
2017-07-21T03:39:12.406Z,1516
2017-07-21T03:40:22.674Z,1540
2017-07-21T03:41:32.636Z,1560
2017-07-21T03:42:44.627Z,1584
2017-07-21T03:43:54.898Z,1600
2017-07-21T03:45:04.857Z,1620
2017-07-21T03:46:14.812Z,1644
2017-07-21T03:47:25.077Z,1664
2017-07-21T03:48:35.042Z,1684
2017-07-21T03:49:44.690Z,1704
2017-07-21T03:50:54.960Z,1728
2017-07-21T03:52:05.228Z,1748
2017-07-21T03:53:15.500Z,1772
2017-07-21T03:54:25.770Z,1788
2017-07-21T03:55:36.040Z,1808
2017-07-21T03:56:46.302Z,1824
2017-07-21T03:57:56.573Z,1844
2017-07-21T03:59:06.859Z,1864
2017-07-21T04:00:17.135Z,1880
2017-07-21T04:01:27.413Z,1896
2017-07-21T04:02:37.366Z,1916
2017-07-21T04:03:47.630Z,1932
2017-07-21T04:04:57.586Z,1948
2017-07-21T04:06:07.856Z,1968
2017-07-21T04:07:18.131Z,1980
2017-07-21T04:08:28.405Z,1996
2017-07-21T04:09:38.684Z,2012
2017-07-21T04:10:48.954Z,2028
2017-07-21T04:11:58.908Z,2044
2017-07-21T04:13:09.178Z,2060
2017-07-21T04:14:19.453Z,2076
2017-07-21T04:15:29.728Z,2088
2017-07-21T04:16:39.995Z,2104
2017-07-21T04:17:50.268Z,2124
2017-07-21T04:19:00.226Z,2136
2017-07-21T04:20:10.183Z,2148
2017-07-21T04:21:20.142Z,2160
2017-07-21T04:22:30.100Z,2176
2017-07-21T04:23:40.371Z,2188
2017-07-21T04:24:50.330Z,2200
2017-07-21T04:26:00.599Z,2220
2017-07-21T04:27:10.874Z,2228
2017-07-21T04:28:21.145Z,2244
2017-07-21T04:29:31.423Z,2256
2017-07-21T04:30:41.699Z,2268
2017-07-21T04:31:51.966Z,2280
2017-07-21T04:33:01.943Z,2292
2017-07-21T04:34:11.900Z,2304
2017-07-21T04:35:21.854Z,2320
2017-07-21T04:36:32.128Z,2332
2017-07-21T04:37:42.399Z,2344
2017-07-21T04:38:52.672Z,2356
2017-07-21T04:40:02.949Z,2368
2017-07-21T04:41:13.223Z,2384
2017-07-21T04:42:23.489Z,2396
2017-07-21T04:43:33.443Z,2404
2017-07-21T04:44:43.717Z,2416
2017-07-21T04:45:53.989Z,2428
2017-07-21T04:47:04.587Z,2440
2017-07-21T04:48:14.857Z,2448
2017-07-21T04:49:24.828Z,2460
2017-07-21T04:50:34.787Z,2472
2017-07-21T04:51:44.748Z,2480
2017-07-21T04:52:55.053Z,2492
2017-07-21T04:54:05.016Z,2500
2017-07-21T04:55:15.304Z,2508
2017-07-21T04:56:25.579Z,2516
2017-07-21T04:57:35.849Z,2528
2017-07-21T04:58:45.806Z,2540
2017-07-21T04:59:55.447Z,2548
2017-07-21T05:01:05.085Z,2556
2017-07-21T05:02:15.350Z,2564
2017-07-21T05:03:25.622Z,2576
2017-07-21T05:04:36.046Z,2580
2017-07-21T05:05:45.371Z,2592
2017-07-21T05:06:55.640Z,2600
2017-07-21T05:08:05.910Z,2612
2017-07-21T05:09:15.864Z,2620
2017-07-21T05:10:26.135Z,2624
2017-07-21T05:11:36.417Z,2636
2017-07-21T05:12:46.723Z,2644
2017-07-21T05:13:56.991Z,2648
2017-07-21T05:15:07.265Z,2660
2017-07-21T05:16:17.537Z,2664
2017-07-21T05:17:27.815Z,2672
2017-07-21T05:18:37.774Z,2680
2017-07-21T05:19:48.051Z,2688
2017-07-21T05:20:58.006Z,2704
2017-07-21T05:22:08.287Z,2708
2017-07-21T05:23:18.559Z,2720
2017-07-21T05:24:28.832Z,2728
2017-07-21T05:25:39.104Z,2732
2017-07-21T05:26:49.060Z,2744
2017-07-21T05:27:59.330Z,2756
2017-07-21T05:29:09.598Z,2760
2017-07-21T05:30:19.560Z,2772
2017-07-21T05:31:29.525Z,2784
2017-07-21T05:32:39.796Z,2796
2017-07-21T05:33:50.070Z,2804
2017-07-21T05:35:00.383Z,2812
2017-07-21T05:36:10.656Z,2828
2017-07-21T05:37:20.934Z,2836
2017-07-21T05:38:31.245Z,2848
2017-07-21T05:39:41.518Z,2856
2017-07-21T05:40:51.791Z,2872
2017-07-21T05:42:02.063Z,2888
2017-07-21T05:43:12.331Z,2912
2017-07-21T05:44:22.606Z,2924
2017-07-21T05:45:32.885Z,2948
2017-07-21T05:46:43.159Z,2972
2017-07-21T05:47:53.430Z,2992
2017-07-21T05:49:03.705Z,3024
2017-07-21T05:50:13.982Z,3060
2017-07-21T05:51:24.251Z,3148
2017-07-21T05:52:34.522Z,3276
2017-07-21T05:53:44.794Z,3416
2017-07-21T05:54:55.064Z,3520
2017-07-21T05:56:05.340Z,3548
2017-07-21T05:57:15.306Z,3492
2017-07-21T05:58:25.265Z,3372
2017-07-21T05:59:35.538Z,3248
2017-07-21T06:00:45.814Z,3136
2017-07-21T06:01:55.775Z,3064
2017-07-21T06:03:09.269Z,3020
2017-07-21T06:04:19.540Z,3008
2017-07-21T06:05:29.819Z,3012
2017-07-21T06:06:40.090Z,3012
2017-07-21T06:07:50.052Z,3020
2017-07-21T06:09:00.326Z,3028
2017-07-21T06:10:10.379Z,3032
2017-07-21T06:11:20.646Z,3036
2017-07-21T06:12:30.601Z,3036
2017-07-21T06:13:40.558Z,3044
2017-07-21T06:14:50.831Z,3056
2017-07-21T06:16:01.105Z,3068
2017-07-21T06:17:10.747Z,3080
2017-07-21T06:18:21.017Z,3088
2017-07-21T06:19:31.290Z,3100
2017-07-21T06:20:41.251Z,3108
2017-07-21T06:21:51.527Z,3120
2017-07-21T06:23:01.490Z,3128
2017-07-21T06:24:11.767Z,3128
2017-07-21T06:25:21.738Z,3156
2017-07-21T06:26:31.700Z,3140
2017-07-21T06:27:41.973Z,3188
2017-07-21T06:28:51.616Z,3196
2017-07-21T06:30:01.892Z,3200
2017-07-21T06:31:11.850Z,3204
2017-07-21T06:32:21.495Z,3216
2017-07-21T06:33:31.769Z,3224
2017-07-21T06:34:42.050Z,3244
2017-07-21T06:35:52.007Z,3260
2017-07-21T06:37:01.967Z,3284
2017-07-21T06:38:11.924Z,3304
2017-07-21T06:39:22.200Z,3324
2017-07-21T06:40:32.470Z,3364
2017-07-21T06:41:42.767Z,3396
2017-07-21T06:42:53.034Z,3436
2017-07-21T06:44:02.679Z,3476
2017-07-21T06:45:12.963Z,3504
2017-07-21T06:46:23.237Z,3540
2017-07-21T06:47:33.516Z,3568
2017-07-21T06:48:43.470Z,3572
2017-07-21T06:49:53.431Z,3476
2017-07-21T06:51:03.083Z,3616
2017-07-21T06:52:12.722Z,3740
2017-07-21T06:53:22.993Z,3956
2017-07-21T06:54:33.268Z,4244
2017-07-21T06:55:43.542Z,4592
2017-07-21T06:56:53.814Z,5228
2017-07-21T06:58:04.095Z,5352
2017-07-21T06:59:14.055Z,5524
2017-07-21T07:00:24.335Z,5700
2017-07-21T07:01:34.610Z,5560
2017-07-21T07:02:44.889Z,5128
2017-07-21T07:03:54.848Z,5044
2017-07-21T07:05:05.129Z,5448
2017-07-21T07:06:15.410Z,5080
2017-07-21T07:07:25.691Z,4976
2017-07-21T07:08:35.966Z,5452
2017-07-21T07:09:46.238Z,5140
2017-07-21T07:10:56.509Z,5136
2017-07-21T07:12:06.467Z,5132
2017-07-21T07:13:16.746Z,5328
2017-07-21T07:14:26.698Z,5168
2017-07-21T07:15:36.979Z,5280
2017-07-21T07:16:46.618Z,5408
2017-07-21T07:17:56.896Z,5344
2017-07-21T07:19:06.867Z,5184
2017-07-21T07:20:16.827Z,5136
2017-07-21T07:21:27.095Z,5284
2017-07-21T07:22:37.369Z,4804
2017-07-21T07:23:47.650Z,4720
2017-07-21T07:24:57.930Z,4616
2017-07-21T07:26:07.902Z,5012
2017-07-21T07:27:17.862Z,4820
2017-07-21T07:28:28.132Z,4960
2017-07-21T07:29:38.089Z,4980
2017-07-21T07:30:48.362Z,4628
2017-07-21T07:31:58.328Z,4672
2017-07-21T07:33:08.291Z,4612
2017-07-21T07:34:17.934Z,5128
2017-07-21T07:35:27.894Z,4856
2017-07-21T07:36:38.175Z,5124
2017-07-21T07:37:48.139Z,4936
2017-07-21T07:38:58.414Z,5140
2017-07-21T07:40:08.691Z,4680
2017-07-21T07:41:18.975Z,4568
2017-07-21T07:42:29.245Z,4628
2017-07-21T07:43:39.205Z,4796
2017-07-21T07:44:49.477Z,4912
2017-07-21T07:45:59.434Z,5228
2017-07-21T07:47:09.398Z,5740
2017-07-21T07:48:19.672Z,6636
2017-07-21T07:49:29.942Z,7508
2017-07-21T07:50:39.598Z,8916
2017-07-21T07:51:49.870Z,9572
2017-07-21T07:53:00.154Z,9364
2017-07-21T07:54:10.426Z,9464
2017-07-21T07:55:20.382Z,9796
2017-07-21T07:56:30.034Z,10176
2017-07-21T07:57:40.306Z,10168
2017-07-21T07:58:50.585Z,9964
2017-07-21T08:00:00.233Z,9736
2017-07-21T08:01:10.507Z,9332
2017-07-21T08:02:20.824Z,8856
2017-07-21T08:03:31.095Z,8552
2017-07-21T08:04:41.373Z,8100
2017-07-21T08:05:51.016Z,7968
2017-07-21T08:07:00.979Z,7704
2017-07-21T08:08:11.260Z,7496
2017-07-21T08:09:21.532Z,7192
2017-07-21T08:10:31.494Z,7472
2017-07-21T08:11:41.764Z,7200
2017-07-21T08:12:52.039Z,6512
2017-07-21T08:14:02.014Z,6536
2017-07-21T08:15:11.975Z,6288
2017-07-21T08:16:22.248Z,6208
2017-07-21T08:17:32.523Z,6260
2017-07-21T08:18:42.797Z,5984
2017-07-21T08:19:53.071Z,6796
2017-07-21T08:21:03.032Z,7384
2017-07-21T08:22:12.988Z,7772
2017-07-21T08:23:23.258Z,8100
2017-07-21T08:24:33.218Z,8384
2017-07-21T08:25:43.180Z,8648
2017-07-21T08:26:53.458Z,9060
2017-07-21T08:28:03.729Z,9352
2017-07-21T08:29:13.690Z,9544
2017-07-21T08:30:23.651Z,9760
2017-07-21T08:31:33.927Z,9728
2017-07-21T08:32:43.890Z,10228
2017-07-21T08:33:53.860Z,10576
2017-07-21T08:35:03.815Z,10772
2017-07-21T08:36:14.096Z,10116
2017-07-21T08:37:24.375Z,9060
2017-07-21T08:38:34.655Z,8484
2017-07-21T08:39:44.939Z,8116
2017-07-21T08:40:55.222Z,7912
2017-07-21T08:42:05.178Z,7604
2017-07-21T08:43:14.830Z,7712
2017-07-21T08:44:24.790Z,7872
2017-07-21T08:45:35.069Z,8012
2017-07-21T08:46:45.342Z,8268
2017-07-21T08:47:55.610Z,8876
2017-07-21T08:49:05.886Z,9332
2017-07-21T08:50:16.169Z,9500
2017-07-21T08:51:26.129Z,9580
2017-07-21T08:52:36.090Z,9904
2017-07-21T08:53:46.364Z,10620
2017-07-21T08:54:56.011Z,10304
2017-07-21T08:56:05.970Z,10552
2017-07-21T08:57:15.932Z,11212
2017-07-21T08:58:26.207Z,11164
2017-07-21T08:59:35.852Z,10956
2017-07-21T09:00:45.498Z,11004
2017-07-21T09:01:55.774Z,10964
2017-07-21T09:03:05.757Z,10864
2017-07-21T09:04:16.032Z,11088
2017-07-21T09:05:26.307Z,11892
2017-07-21T09:06:36.577Z,13180
2017-07-21T09:07:46.867Z,13416
2017-07-21T09:08:56.824Z,13856
2017-07-21T09:10:06.789Z,14064
2017-07-21T09:11:17.089Z,13912
2017-07-21T09:12:27.363Z,13452
2017-07-21T09:13:37.648Z,12696
2017-07-21T09:14:47.619Z,12276
2017-07-21T09:15:59.939Z,11972
2017-07-21T09:17:09.922Z,11776
2017-07-21T09:18:19.898Z,11476
2017-07-21T09:19:30.174Z,11208
2017-07-21T09:20:40.452Z,11040
2017-07-21T09:21:50.412Z,10936
2017-07-21T09:23:00.370Z,10956
2017-07-21T09:24:10.665Z,10988
2017-07-21T09:25:20.945Z,11060
2017-07-21T09:26:30.589Z,10164
2017-07-21T09:27:40.556Z,9460
2017-07-21T09:28:50.516Z,8936
2017-07-21T09:30:00.789Z,8436
2017-07-21T09:31:10.750Z,8348
2017-07-21T09:32:20.710Z,8324
2017-07-21T09:33:31.136Z,8512
2017-07-21T09:34:41.102Z,8472
2017-07-21T09:35:51.400Z,9284
2017-07-21T09:37:01.680Z,8428
2017-07-21T09:38:11.960Z,8108
2017-07-21T09:39:22.232Z,7556
2017-07-21T09:40:32.506Z,7388
2017-07-21T09:41:42.784Z,7096
2017-07-21T09:42:53.061Z,6980
2017-07-21T09:44:03.348Z,6908
2017-07-21T09:45:13.639Z,6828
2017-07-21T09:46:23.600Z,6760
2017-07-21T09:47:33.567Z,6676
2017-07-21T09:48:43.845Z,6696
2017-07-21T09:49:54.121Z,6676
2017-07-21T09:51:03.458Z,6636
2017-07-21T09:52:13.737Z,6552
2017-07-21T09:53:23.698Z,6532
2017-07-21T09:54:33.661Z,6592
2017-07-21T09:55:43.635Z,6760
2017-07-21T09:56:53.597Z,6904
2017-07-21T09:58:03.871Z,7060
2017-07-21T09:59:13.834Z,7136
2017-07-21T10:00:24.112Z,7304
2017-07-21T10:01:34.389Z,7672
2017-07-21T10:02:44.667Z,8156
2017-07-21T10:03:54.626Z,8580
2017-07-21T10:05:04.589Z,8892
2017-07-21T10:06:14.910Z,9068
2017-07-21T10:07:25.186Z,8984
2017-07-21T10:08:35.469Z,8692
2017-07-21T10:09:45.429Z,8528
2017-07-21T10:10:55.423Z,8668
2017-07-21T10:12:05.692Z,8988
2017-07-21T10:13:15.020Z,9132
2017-07-21T10:14:25.298Z,8608
2017-07-21T10:15:35.572Z,8716
2017-07-21T10:16:45.539Z,8856
2017-07-21T10:17:55.821Z,9036
2017-07-21T10:19:05.185Z,8364
2017-07-21T10:20:15.459Z,9324
2017-07-21T10:21:25.731Z,9476
2017-07-21T10:22:36.014Z,10176
2017-07-21T10:23:46.291Z,10860
2017-07-21T10:24:56.570Z,9920
2017-07-21T10:26:06.529Z,10700
2017-07-21T10:27:15.873Z,9940
2017-07-21T10:28:25.836Z,9200
2017-07-21T10:29:36.119Z,9200
2017-07-21T10:30:46.086Z,8556
2017-07-21T10:31:56.048Z,8244
2017-07-21T10:33:06.010Z,8472
2017-07-21T10:34:15.974Z,8500
2017-07-21T10:35:26.254Z,8544
2017-07-21T10:36:36.533Z,8876
2017-07-21T10:37:46.490Z,9376
2017-07-21T10:38:56.452Z,8632
2017-07-21T10:40:06.102Z,7288
2017-07-21T10:41:16.387Z,8356
2017-07-21T10:42:26.661Z,7264
2017-07-21T10:43:36.935Z,6464
2017-07-21T10:44:46.897Z,6644
2017-07-21T10:45:56.856Z,7096
2017-07-21T10:47:07.147Z,8200
2017-07-21T10:48:17.437Z,6832
2017-07-21T10:49:27.717Z,7704
2017-07-21T10:50:37.995Z,7792
2017-07-21T10:51:48.275Z,7644
2017-07-21T10:52:58.574Z,7108
2017-07-21T10:54:08.855Z,6612
2017-07-21T10:55:18.502Z,6824
2017-07-21T10:56:28.802Z,7824
2017-07-21T10:57:38.457Z,9468
2017-07-21T10:58:48.108Z,10380
2017-07-21T10:59:58.389Z,10272
2017-07-21T11:01:08.665Z,9968
2017-07-21T11:02:18.941Z,9568
2017-07-21T11:03:29.221Z,9308
2017-07-21T11:04:39.498Z,8992
2017-07-21T11:05:49.774Z,9084
2017-07-21T11:06:59.421Z,9468
2017-07-21T11:08:09.397Z,10048
2017-07-21T11:09:19.671Z,10316
2017-07-21T11:10:29.635Z,10612
2017-07-21T11:11:39.913Z,10756
2017-07-21T11:12:49.563Z,10712
2017-07-21T11:13:59.736Z,10472
2017-07-21T11:15:09.380Z,10444
2017-07-21T11:16:19.658Z,10536
2017-07-21T11:17:29.940Z,10472
2017-07-21T11:18:40.221Z,10824
2017-07-21T11:19:50.492Z,10752
2017-07-21T11:21:00.466Z,10336
2017-07-21T11:22:10.739Z,9808
2017-07-21T11:23:20.411Z,9068
2017-07-21T11:24:30.718Z,8304
2017-07-21T11:25:40.675Z,7700
2017-07-21T11:26:50.952Z,7296
2017-07-21T11:28:01.225Z,7320
2017-07-21T11:29:11.189Z,7492
2017-07-21T11:30:20.838Z,7116
2017-07-21T11:31:30.489Z,7164
2017-07-21T11:32:40.451Z,7376
2017-07-21T11:33:50.727Z,7556
2017-07-21T11:35:00.692Z,7708
2017-07-21T11:36:10.649Z,7652
2017-07-21T11:37:20.304Z,7572
2017-07-21T11:38:30.583Z,7560
2017-07-21T11:39:40.854Z,7468
2017-07-21T11:40:51.132Z,7552
2017-07-21T11:42:01.405Z,8020
2017-07-21T11:43:11.370Z,8888
2017-07-21T11:44:21.342Z,10188
2017-07-21T11:45:31.618Z,11812
2017-07-21T11:46:41.589Z,13012
2017-07-21T11:47:51.550Z,13844
2017-07-21T11:49:01.830Z,14252
2017-07-21T11:50:11.793Z,13996
2017-07-21T11:51:22.068Z,13708
2017-07-21T11:52:32.347Z,13308
2017-07-21T11:53:42.638Z,12876
2017-07-21T11:54:52.919Z,12124
2017-07-21T11:56:03.198Z,11352
2017-07-21T11:57:13.159Z,10624
2017-07-21T11:58:23.444Z,9848
2017-07-21T11:59:33.719Z,9012
2017-07-21T12:00:44.005Z,8560
2017-07-21T12:01:54.292Z,8600
2017-07-21T12:03:03.942Z,8928
2017-07-21T12:04:14.223Z,9604
2017-07-21T12:05:24.192Z,10352
2017-07-21T12:06:34.155Z,11044
2017-07-21T12:07:44.433Z,11980
2017-07-21T12:08:54.734Z,13024
2017-07-21T12:10:04.696Z,14100
2017-07-21T12:11:14.979Z,14704
2017-07-21T12:12:25.260Z,14796
2017-07-21T12:13:35.593Z,15144
2017-07-21T12:14:45.562Z,15472
2017-07-21T12:15:55.864Z,16416
2017-07-21T12:17:06.138Z,17536
2017-07-21T12:18:16.428Z,18592
2017-07-21T12:19:26.705Z,19552
2017-07-21T12:20:36.668Z,20416
2017-07-21T12:21:46.639Z,21408
2017-07-21T12:22:56.925Z,21632
2017-07-21T12:24:06.888Z,21344
2017-07-21T12:25:16.846Z,21344
2017-07-21T12:26:26.814Z,21248
2017-07-21T12:27:37.099Z,21120
2017-07-21T12:28:47.376Z,21120
2017-07-21T12:29:57.653Z,21344
2017-07-21T12:31:07.615Z,22048
2017-07-21T12:32:17.598Z,23072
2017-07-21T12:33:27.560Z,24288
2017-07-21T12:34:37.518Z,25152
2017-07-21T12:35:47.817Z,25632
2017-07-21T12:36:58.106Z,28672
2017-07-21T12:38:08.074Z,35104
2017-07-21T12:39:18.039Z,92544
2017-07-21T12:40:28.315Z,71840
2017-07-21T12:41:38.597Z,78944
2017-07-21T12:42:48.875Z,30400
2017-07-21T12:43:59.153Z,68640
2017-07-21T12:45:09.126Z,92480
2017-07-21T12:46:19.096Z,98208
2017-07-21T12:47:29.393Z,102048
2017-07-21T12:48:39.356Z,97888
2017-07-21T12:49:49.636Z,96640
2017-07-21T12:50:59.920Z,96576
2017-07-21T12:52:10.207Z,97280
2017-07-21T12:53:20.489Z,95584
2017-07-21T12:54:30.774Z,70176
2017-07-21T12:55:40.748Z,66080
2017-07-21T12:56:50.728Z,41184
2017-07-21T12:58:00.707Z,34592
2017-07-21T12:59:10.674Z,19616
2017-07-21T13:00:20.643Z,24384
2017-07-21T13:01:30.927Z,30624
2017-07-21T13:02:40.907Z,20416
2017-07-21T13:03:51.190Z,20992
2017-07-21T13:05:01.166Z,15052
2017-07-21T13:06:11.156Z,13820
2017-07-21T13:07:21.124Z,13352
2017-07-21T13:08:31.408Z,12560
2017-07-21T13:09:41.061Z,12632
2017-07-21T13:10:51.369Z,14908
2017-07-21T13:12:01.646Z,61440
2017-07-21T13:13:11.611Z,58624
2017-07-21T13:14:21.894Z,49312
2017-07-21T13:15:32.174Z,35552
2017-07-21T13:16:42.454Z,36736
2017-07-21T13:17:52.744Z,37056
2017-07-21T13:19:02.717Z,50112
2017-07-21T13:20:12.996Z,38400
2017-07-21T13:21:23.294Z,16544
2017-07-21T13:22:33.574Z,13952
2017-07-21T13:23:43.863Z,15508
2017-07-21T13:24:53.845Z,25440
2017-07-21T13:26:04.123Z,24288
2017-07-21T13:27:14.409Z,18528
2017-07-21T13:28:24.690Z,32736
2017-07-21T13:29:34.653Z,40768
2017-07-21T13:30:44.313Z,43584
2017-07-21T13:31:54.593Z,44224
2017-07-21T13:33:04.878Z,36992
2017-07-21T13:34:14.537Z,28768
2017-07-21T13:35:24.820Z,30560
2017-07-21T13:36:34.786Z,65920
2017-07-21T13:37:45.107Z,61280
2017-07-21T13:38:55.144Z,84288
2017-07-21T13:40:05.120Z,52832
2017-07-21T13:41:15.087Z,39584
2017-07-21T13:42:25.362Z,32832
2017-07-21T13:43:35.640Z,38400
2017-07-21T13:44:45.919Z,62272
2017-07-21T13:45:55.889Z,55712
2017-07-21T13:47:06.191Z,48160
2017-07-21T13:48:16.480Z,31104
2017-07-21T13:49:26.759Z,27776
2017-07-21T13:50:37.037Z,18080
2017-07-21T13:51:47.315Z,16832
2017-07-21T13:52:57.593Z,19136
2017-07-21T13:54:07.874Z,23616
2017-07-21T13:55:18.159Z,29888
2017-07-21T13:56:28.450Z,42560
2017-07-21T13:57:38.730Z,49376
2017-07-21T13:58:49.015Z,73728
2017-07-21T13:59:59.299Z,98304
2017-07-21T14:01:09.263Z,85952
2017-07-21T14:02:19.542Z,92864
2017-07-21T14:03:29.821Z,56512
2017-07-21T14:04:39.791Z,65504
2017-07-21T14:05:49.758Z,88064
2017-07-21T14:07:00.041Z,94624
2017-07-21T14:08:10.025Z,96160
2017-07-21T14:09:20.302Z,94432
2017-07-21T14:10:30.282Z,94272
2017-07-21T14:11:40.564Z,91104
2017-07-21T14:12:50.850Z,89664
2017-07-21T14:14:00.815Z,90336
2017-07-21T14:15:11.103Z,75136
2017-07-21T14:16:21.392Z,71488
2017-07-21T14:17:31.694Z,61952
2017-07-21T14:18:41.357Z,69888
2017-07-21T14:19:51.337Z,66048
2017-07-21T14:21:01.303Z,83040
2017-07-21T14:22:11.582Z,80896
2017-07-21T14:23:21.869Z,78112
2017-07-21T14:24:32.158Z,86304
2017-07-21T14:25:42.126Z,81696
2017-07-21T14:26:52.416Z,83680
2017-07-21T14:28:02.705Z,78080
2017-07-21T14:29:12.363Z,77760
2017-07-21T14:30:22.336Z,73184
2017-07-21T14:31:32.620Z,72320
2017-07-21T14:32:42.906Z,72160
2017-07-21T14:33:53.197Z,62016
2017-07-21T14:35:03.482Z,64928
2017-07-21T14:36:13.773Z,69824
2017-07-21T14:37:24.053Z,78272
2017-07-21T14:38:34.339Z,78688
2017-07-21T14:39:44.632Z,67360
2017-07-21T14:40:54.603Z,56640
2017-07-21T14:42:04.890Z,54240
2017-07-21T14:43:15.182Z,56384
2017-07-21T14:44:25.466Z,54208
2017-07-21T14:45:35.756Z,49888
2017-07-21T14:46:46.040Z,47744
2017-07-21T14:47:56.322Z,49696
2017-07-21T14:49:06.613Z,52640
2017-07-21T14:50:16.894Z,54080
2017-07-21T14:51:26.866Z,60192
2017-07-21T14:52:37.160Z,62624
2017-07-21T14:53:47.131Z,64672
2017-07-21T14:54:57.414Z,57824
2017-07-21T14:56:07.385Z,68704
2017-07-21T14:57:17.358Z,71584
2017-07-21T14:58:27.648Z,79328
2017-07-21T14:59:37.939Z,77760
2017-07-21T15:00:48.222Z,77184
2017-07-21T15:01:58.192Z,76064
2017-07-21T15:03:08.481Z,78624
2017-07-21T15:04:18.771Z,81408
2017-07-21T15:05:28.750Z,82336
2017-07-21T15:06:38.719Z,81472
2017-07-21T15:07:48.692Z,83232
2017-07-21T15:08:58.976Z,83872
2017-07-21T15:10:09.268Z,85184
2017-07-21T15:11:19.244Z,86624
2017-07-21T15:12:29.531Z,86176
2017-07-21T15:13:39.508Z,83200
2017-07-21T15:14:49.477Z,82944
2017-07-21T15:15:59.784Z,88160
2017-07-21T15:17:10.072Z,87104
2017-07-21T15:18:20.369Z,81344
2017-07-21T15:19:30.338Z,80480
2017-07-21T15:20:40.623Z,79328
2017-07-21T15:21:50.908Z,79072
2017-07-21T15:23:01.196Z,79136
2017-07-21T15:24:11.482Z,79552
2017-07-21T15:25:21.465Z,80768
2017-07-21T15:26:31.760Z,79680
2017-07-21T15:27:41.730Z,78240
2017-07-21T15:28:51.700Z,77024
2017-07-21T15:30:01.683Z,75616
2017-07-21T15:31:11.660Z,76416
2017-07-21T15:32:21.627Z,73024
2017-07-21T15:33:31.915Z,73344
2017-07-21T15:34:41.893Z,76768
2017-07-21T15:35:52.180Z,72256
2017-07-21T15:37:02.152Z,58976
2017-07-21T15:38:12.440Z,69440